Time;durP1;ratioP1;P1;durP2;ratioP2;P2;SDS_P1;SDS_P2;PMS_P1;PMS_P2;Temp;Humidity;BMP_temperature;BMP_pressure;BME280_temperature;BME280_humidity;BME280_pressure;Samples;Min_cycle;Max_cycle;Signal;HPM_P1;HPM_P2
2021/09/22 00:02:07;;;;;;;10.73;7.72;;;;;;;10.03;100.00;102925.53;5261719;28;20047;-68
2021/09/22 00:04:38;;;;;;;8.13;7.20;;;;;;;10.10;100.00;102921.69;5265494;28;20067;-68
2021/09/22 00:07:09;;;;;;;9.32;7.55;;;;;;;10.03;100.00;102926.38;5265902;28;20107;-68
2021/09/22 00:09:40;;;;;;;9.60;7.70;;;;;;;10.02;100.00;102927.31;5265138;28;20482;-68
2021/09/22 00:12:12;;;;;;;8.40;7.53;;;;;;;10.04;100.00;102927.22;5264548;28;20029;-68
2021/09/22 00:14:43;;;;;;;9.20;7.55;;;;;;;10.04;100.00;102924.59;5263104;28;20029;-68
2021/09/22 00:17:14;;;;;;;12.07;7.70;;;;;;;10.02;100.00;102929.06;5265811;28;20501;-67
2021/09/22 00:19:46;;;;;;;8.60;7.13;;;;;;;10.01;100.00;102923.00;5265463;28;20040;-67
2021/09/22 00:22:17;;;;;;;8.20;7.32;;;;;;;9.93;100.00;102907.66;5264687;28;20029;-67
2021/09/22 00:24:48;;;;;;;9.40;7.38;;;;;;;9.87;100.00;102914.97;5265665;28;20070;-67
2021/09/22 00:27:19;;;;;;;8.35;7.22;;;;;;;9.88;100.00;102917.50;5266218;28;20211;-67
2021/09/22 00:29:51;;;;;;;8.88;7.60;;;;;;;9.92;100.00;102924.28;5262835;28;20067;-67
2021/09/22 00:32:22;;;;;;;9.57;7.70;;;;;;;9.88;100.00;102908.78;5264353;28;20056;-67
2021/09/22 00:34:53;;;;;;;9.43;7.55;;;;;;;9.87;100.00;102915.81;5263837;28;20452;-67
2021/09/22 00:37:25;;;;;;;9.52;7.40;;;;;;;9.81;100.00;102910.88;5267461;28;20482;-67
2021/09/22 00:39:56;;;;;;;10.20;7.57;;;;;;;9.85;100.00;102916.78;5264744;28;20067;-67
2021/09/22 00:42:27;;;;;;;10.55;7.57;;;;;;;9.76;100.00;102912.84;5263776;28;20037;-67
2021/09/22 00:45:05;;;;;;;9.10;7.25;;;;;;;9.78;100.00;102921.50;5265071;28;20486;-67
2021/09/22 00:47:37;;;;;;;8.60;7.70;;;;;;;9.69;100.00;102911.47;5264277;28;20041;-67
2021/09/22 00:50:09;;;;;;;10.60;8.13;;;;;;;9.64;100.00;102909.06;5267018;28;20032;-67
2021/09/22 00:52:41;;;;;;;10.43;7.97;;;;;;;9.70;100.00;102926.25;5262130;28;20041;-67
2021/09/22 00:55:13;;;;;;;12.17;8.70;;;;;;;9.69;100.00;102919.31;5262786;28;20032;-67
2021/09/22 00:57:50;;;;;;;9.70;8.27;;;;;;;9.75;100.00;102922.50;5263929;28;20037;-67
2021/09/22 01:00:24;;;;;;;10.77;8.43;;;;;;;9.67;100.00;102916.78;5262551;28;20035;-67
2021/09/22 01:02:56;;;;;;;9.65;8.10;;;;;;;9.63;100.00;102917.84;5265779;28;20100;-67
2021/09/22 01:05:27;;;;;;;10.93;9.65;;;;;;;9.62;100.00;102910.06;5263682;28;20566;-67
2021/09/22 01:07:59;;;;;;;11.32;9.18;;;;;;;9.60;100.00;102917.13;5261087;28;20013;-67
2021/09/22 01:10:31;;;;;;;10.20;9.05;;;;;;;9.51;100.00;102910.59;5266136;28;20032;-67
2021/09/22 01:13:03;;;;;;;8.88;7.97;;;;;;;9.45;100.00;102919.56;5265040;28;20040;-67
2021/09/22 01:15:38;;;;;;;10.32;9.02;;;;;;;9.46;100.00;102920.41;5265429;28;20032;-67
2021/09/22 01:18:17;;;;;;;13.82;9.00;;;;;;;9.50;100.00;102912.31;5264130;28;20063;-67
2021/09/22 01:20:55;;;;;;;10.65;8.65;;;;;;;9.45;100.00;102909.09;5256933;28;20028;-67
2021/09/22 01:23:28;;;;;;;10.77;9.25;;;;;;;9.37;100.00;102906.00;5266454;28;20391;-67
2021/09/22 01:25:59;;;;;;;10.18;8.77;;;;;;;9.44;100.00;102909.19;5267110;28;20024;-67
2021/09/22 01:28:33;;;;;;;11.73;9.05;;;;;;;9.43;100.00;102910.94;5264676;28;20058;-67
2021/09/22 01:31:07;;;;;;;9.82;8.82;;;;;;;9.43;100.00;102907.44;5266863;28;20020;-67
2021/09/22 01:33:38;;;;;;;10.52;8.27;;;;;;;9.37;100.00;102906.00;5267946;28;20539;-67
2021/09/22 01:36:14;;;;;;;11.30;8.57;;;;;;;9.41;100.00;102911.94;5267648;28;20024;-67
2021/09/22 01:38:45;;;;;;;10.52;9.38;;;;;;;9.32;100.00;102913.22;5266983;28;20457;-67
2021/09/22 01:41:17;;;;;;;14.05;10.57;;;;;;;9.31;100.00;102900.19;5268517;28;20024;-67
2021/09/22 01:43:48;;;;;;;13.82;11.13;;;;;;;9.38;100.00;102906.84;5271076;28;20036;-67
2021/09/22 01:46:20;;;;;;;12.57;10.82;;;;;;;9.35;100.00;102902.59;5265749;28;20029;-67
2021/09/22 01:48:51;;;;;;;13.18;10.98;;;;;;;9.39;100.00;102896.28;5266911;28;20021;-67
2021/09/22 01:51:23;;;;;;;14.15;11.50;;;;;;;9.38;100.00;102896.38;5267413;28;20079;-67
2021/09/22 01:53:54;;;;;;;13.23;11.60;;;;;;;9.31;100.00;102903.66;5267182;28;20048;-67
2021/09/22 01:56:25;;;;;;;13.25;11.85;;;;;;;9.31;100.00;102894.97;5264857;28;20043;-67
2021/09/22 01:58:57;;;;;;;14.02;11.52;;;;;;;9.26;100.00;102882.94;5265432;28;20025;-67
2021/09/22 02:01:28;;;;;;;17.98;12.15;;;;;;;9.25;100.00;102885.66;5266252;28;20028;-67
2021/09/22 02:03:59;;;;;;;13.43;12.02;;;;;;;9.25;100.00;102885.66;5268953;28;20021;-68
2021/09/22 02:06:30;;;;;;;14.10;11.60;;;;;;;9.23;100.00;102884.84;5267171;28;20051;-68
2021/09/22 02:09:03;;;;;;;14.07;12.15;;;;;;;9.18;100.00;102882.47;5268144;28;21139;-68
2021/09/22 02:11:34;;;;;;;13.05;11.38;;;;;;;9.18;100.00;102881.63;5266493;28;20303;-68
2021/09/22 02:14:06;;;;;;;15.07;11.75;;;;;;;9.10;100.00;102887.19;5268243;28;20458;-68
2021/09/22 02:16:37;;;;;;;12.90;11.27;;;;;;;9.06;100.00;102879.56;5265012;28;20029;-68
2021/09/22 02:19:08;;;;;;;12.63;11.27;;;;;;;9.08;100.00;102877.72;5267069;28;20625;-67
2021/09/22 02:21:40;;;;;;;13.95;11.40;;;;;;;9.01;100.00;102883.22;5268493;28;20056;-68
2021/09/22 02:24:11;;;;;;;12.98;11.40;;;;;;;8.97;100.00;102886.88;5266100;28;20107;-68
2021/09/22 02:26:42;;;;;;;15.02;11.38;;;;;;;8.96;100.00;102885.19;5265697;28;20083;-68
2021/09/22 02:29:14;;;;;;;13.60;10.95;;;;;;;8.93;100.00;102876.66;5265948;28;20033;-68
2021/09/22 02:31:47;;;;;;;12.93;11.25;;;;;;;8.91;100.00;102889.81;5265237;28;20029;-68
2021/09/22 02:34:19;;;;;;;14.43;11.85;;;;;;;8.84;100.00;102887.53;5264854;28;20043;-67
2021/09/22 02:36:50;;;;;;;15.20;11.75;;;;;;;8.81;100.00;102883.28;5263040;28;20433;-67
2021/09/22 02:39:22;;;;;;;13.57;12.15;;;;;;;8.79;100.00;102879.91;5264947;28;20069;-68
2021/09/22 02:41:53;;;;;;;13.55;11.50;;;;;;;8.75;100.00;102880.94;5266579;28;20416;-67
2021/09/22 02:44:25;;;;;;;13.65;11.35;;;;;;;8.78;100.00;102881.63;5265695;28;20055;-67
2021/09/22 02:46:56;;;;;;;12.90;11.60;;;;;;;8.71;100.00;102885.47;5261381;28;20466;-68
2021/09/22 02:49:28;;;;;;;13.35;11.95;;;;;;;8.70;100.00;102878.53;5265483;28;20036;-67
2021/09/22 02:51:59;;;;;;;12.85;11.52;;;;;;;8.71;100.00;102884.59;5265922;28;20021;-67
2021/09/22 02:54:30;;;;;;;14.00;11.10;;;;;;;8.71;100.00;102888.09;5266827;28;20144;-68
2021/09/22 02:57:02;;;;;;;14.02;11.43;;;;;;;8.72;100.00;102888.94;5263934;28;20016;-68
2021/09/22 02:59:33;;;;;;;15.23;12.80;;;;;;;8.75;100.00;102883.53;5266264;28;20040;-67
2021/09/22 03:02:05;;;;;;;16.40;12.02;;;;;;;8.71;100.00;102881.97;5266455;28;20028;-67
2021/09/22 03:04:36;;;;;;;13.90;12.43;;;;;;;8.74;100.00;102876.63;5261486;28;20028;-67
2021/09/22 03:07:09;;;;;;;15.30;12.45;;;;;;;8.77;100.00;102873.88;5265883;28;20027;-67
2021/09/22 03:09:41;;;;;;;14.10;12.02;;;;;;;8.72;100.00;102875.88;5266572;28;20043;-67
2021/09/22 03:12:12;;;;;;;16.02;12.93;;;;;;;8.66;100.00;102869.13;5263652;28;20021;-68
2021/09/22 03:14:43;;;;;;;15.10;12.77;;;;;;;8.63;100.00;102869.25;5266035;28;20033;-68
2021/09/22 03:17:15;;;;;;;14.48;12.70;;;;;;;8.65;100.00;102866.59;5265461;28;20029;-67
2021/09/22 03:19:46;;;;;;;13.20;11.63;;;;;;;8.66;100.00;102865.66;5266226;28;20072;-66
2021/09/22 03:22:17;;;;;;;14.55;12.73;;;;;;;8.64;100.00;102850.06;5266630;28;20029;-67
2021/09/22 03:24:49;;;;;;;14.60;12.57;;;;;;;8.56;100.00;102853.91;5264163;28;20029;-68
2021/09/22 03:27:20;;;;;;;15.18;12.35;;;;;;;8.58;100.00;102855.56;5262512;28;20017;-67
2021/09/22 03:29:51;;;;;;;13.77;11.70;;;;;;;8.56;100.00;102846.09;5264423;28;20021;-67
2021/09/22 03:32:23;;;;;;;13.35;11.70;;;;;;;8.51;100.00;102857.59;5262926;28;20072;-67
2021/09/22 03:34:54;;;;;;;13.82;12.32;;;;;;;8.45;100.00;102852.66;5263646;28;20032;-68
2021/09/22 03:37:25;;;;;;;13.48;12.07;;;;;;;8.40;100.00;102853.75;5263359;28;20332;-67
2021/09/22 03:39:57;;;;;;;15.40;12.23;;;;;;;8.36;100.00;102860.00;5264205;28;20040;-67
2021/09/22 03:42:28;;;;;;;13.82;12.27;;;;;;;8.30;100.00;102858.50;5264903;28;20029;-67
2021/09/22 03:44:59;;;;;;;15.90;12.45;;;;;;;8.34;100.00;102852.22;5265055;28;20043;-67
2021/09/22 03:47:31;;;;;;;14.45;12.95;;;;;;;8.27;100.00;102850.78;5265219;28;20137;-67
2021/09/22 03:50:03;;;;;;;14.18;12.38;;;;;;;8.26;100.00;102849.09;5267297;28;20013;-67
2021/09/22 03:52:35;;;;;;;23.23;13.52;;;;;;;8.25;100.00;102853.44;5264437;28;20124;-67
2021/09/22 03:55:07;;;;;;;13.30;11.40;;;;;;;8.23;100.00;102852.69;5264575;28;20103;-67
2021/09/22 03:57:38;;;;;;;14.82;13.18;;;;;;;8.24;100.00;102858.75;5262976;28;20128;-67
2021/09/22 04:00:10;;;;;;;16.40;12.88;;;;;;;8.20;100.00;102860.66;5262374;28;20480;-67
2021/09/22 04:02:41;;;;;;;15.18;13.27;;;;;;;8.22;100.00;102852.72;5263335;28;20041;-66
2021/09/22 04:05:12;;;;;;;17.63;13.75;;;;;;;8.22;100.00;102844.91;5264623;28;20032;-67
2021/09/22 04:07:44;;;;;;;19.63;14.52;;;;;;;8.19;100.00;102839.84;5266426;28;20079;-68
2021/09/22 04:10:18;;;;;;;18.73;15.07;;;;;;;8.23;100.00;102846.63;5266182;28;20048;-68
2021/09/22 04:12:49;;;;;;;16.00;14.30;;;;;;;8.21;100.00;102838.84;5265469;28;20060;-66
2021/09/22 04:15:20;;;;;;;18.30;14.75;;;;;;;8.23;100.00;102833.56;5267128;28;20600;-67
2021/09/22 04:17:52;;;;;;;18.48;16.00;;;;;;;8.17;100.00;102839.88;5264775;28;20083;-67
2021/09/22 04:20:23;;;;;;;19.60;16.88;;;;;;;8.18;100.00;102843.34;5264087;28;20029;-67
2021/09/22 04:22:54;;;;;;;22.83;18.23;;;;;;;8.16;100.00;102845.19;5266330;28;20032;-67
2021/09/22 04:25:26;;;;;;;23.35;17.98;;;;;;;8.21;100.00;102843.22;5264980;28;20033;-67
2021/09/22 04:27:57;;;;;;;22.83;18.88;;;;;;;8.18;100.00;102839.00;5263710;28;20083;-68
2021/09/22 04:30:29;;;;;;;24.70;19.75;;;;;;;8.21;100.00;102840.59;5263436;28;20035;-70
2021/09/22 04:33:02;;;;;;;23.40;19.77;;;;;;;8.19;100.00;102842.44;5266532;28;20036;-68
2021/09/22 04:35:34;;;;;;;23.80;18.98;;;;;;;8.16;100.00;102832.97;5263749;28;20087;-69
2021/09/22 04:38:07;;;;;;;24.50;19.23;;;;;;;8.21;100.00;102844.06;5263338;28;20032;-69
2021/09/22 04:40:38;;;;;;;24.88;19.27;;;;;;;8.23;100.00;102829.19;5264858;28;20037;-68
2021/09/22 04:43:09;;;;;;;26.23;20.00;;;;;;;8.26;100.00;102838.66;5263325;28;20020;-69
2021/09/22 04:45:42;;;;;;;25.80;20.45;;;;;;;8.29;100.00;102841.13;5263470;28;20074;-69
2021/09/22 04:48:14;;;;;;;;;;;;;;;8.57;100.00;102840.81;5265872;28;20111;-70
2021/09/22 04:50:45;;;;;;;24.75;18.80;;;;;;;8.25;100.00;102845.63;5264778;28;20016;-69
2021/09/22 04:53:17;;;;;;;24.08;19.42;;;;;;;8.22;100.00;102839.69;5262344;28;20082;-69
2021/09/22 04:55:48;;;;;;;24.58;18.90;;;;;;;8.20;100.00;102844.13;5264163;28;20037;-69
2021/09/22 04:58:20;;;;;;;23.05;18.60;;;;;;;8.18;100.00;102845.94;5266075;28;20331;-68
2021/09/22 05:00:51;;;;;;;24.58;19.27;;;;;;;8.16;100.00;102848.63;5268378;28;20504;-69
2021/09/22 05:03:22;;;;;;;22.83;18.25;;;;;;;8.16;100.00;102832.97;5268523;28;20021;-67
2021/09/22 05:05:54;;;;;;;25.77;18.85;;;;;;;8.18;100.00;102843.34;5265084;28;20029;-70
2021/09/22 05:08:25;;;;;;;24.65;19.13;;;;;;;8.18;100.00;102846.81;5264910;28;20355;-69
2021/09/22 05:10:57;;;;;;;23.58;18.88;;;;;;;8.18;100.00;102851.16;5269800;28;20050;-68
2021/09/22 05:13:28;;;;;;;24.00;17.92;;;;;;;8.20;100.00;102850.19;5269779;28;20081;-68
2021/09/22 05:15:59;;;;;;;23.95;18.23;;;;;;;8.15;100.00;102860.00;5269259;28;20135;-66
2021/09/22 05:18:31;;;;;;;26.25;18.25;;;;;;;8.15;100.00;102854.78;5265507;28;20025;-69
2021/09/22 05:21:02;;;;;;;23.30;17.25;;;;;;;8.13;100.00;102858.38;5266374;28;20033;-69
2021/09/22 05:23:33;;;;;;;22.33;17.88;;;;;;;8.15;100.00;102857.41;5266946;28;20401;-69
2021/09/22 05:26:05;;;;;;;24.40;17.77;;;;;;;8.13;100.00;102853.13;5267841;28;20098;-69
2021/09/22 05:28:36;;;;;;;25.52;18.70;;;;;;;8.06;100.00;102860.38;5268624;28;20053;-69
2021/09/22 05:31:07;;;;;;;23.00;17.73;;;;;;;8.05;100.00;102867.34;5267862;28;20043;-70
2021/09/22 05:33:39;;;;;;;23.75;17.85;;;;;;;8.03;100.00;102861.38;5268987;28;20107;-69
2021/09/22 05:36:10;;;;;;;25.17;18.15;;;;;;;8.02;100.00;102867.47;5265561;28;20107;-70
2021/09/22 05:38:41;;;;;;;24.75;18.42;;;;;;;8.02;100.00;102862.25;5267489;28;20037;-69
2021/09/22 05:41:12;;;;;;;23.30;17.50;;;;;;;8.02;100.00;102867.47;5265882;28;20021;-68
2021/09/22 05:43:44;;;;;;;27.67;18.85;;;;;;;8.04;100.00;102881.34;5266111;28;20039;-69
2021/09/22 05:46:15;;;;;;;25.85;18.27;;;;;;;8.03;100.00;102877.03;5267915;28;20082;-68
2021/09/22 05:48:47;;;;;;;26.63;18.58;;;;;;;8.00;100.00;102871.94;5264520;28;20056;-67
2021/09/22 05:51:18;;;;;;;24.23;18.05;;;;;;;8.04;100.00;102870.88;5268038;28;20484;-68
2021/09/22 05:53:51;;;;;;;23.98;18.80;;;;;;;8.06;100.00;102876.03;5264090;28;20040;-68
2021/09/22 05:56:22;;;;;;;25.70;18.45;;;;;;;8.10;100.00;102880.22;5268894;28;20021;-69
2021/09/22 05:58:53;;;;;;;25.63;19.25;;;;;;;8.15;100.00;102883.50;5262129;28;20043;-68
2021/09/22 06:01:25;;;;;;;27.08;18.60;;;;;;;8.16;100.00;102887.81;5265415;28;20029;-68
2021/09/22 06:03:56;;;;;;;24.70;18.00;;;;;;;8.19;100.00;102890.28;5263324;28;20029;-68
2021/09/22 06:06:28;;;;;;;26.35;18.35;;;;;;;8.22;100.00;102891.91;5260878;28;20029;-68
2021/09/22 06:08:59;;;;;;;26.17;18.92;;;;;;;8.23;100.00;102891.84;5266523;28;20021;-68
2021/09/22 06:11:31;;;;;;;24.70;18.75;;;;;;;8.29;100.00;102893.34;5267057;28;20551;-67
2021/09/22 06:14:02;;;;;;;24.77;17.80;;;;;;;8.35;100.00;102900.94;5261983;28;20370;-70
2021/09/22 06:16:33;;;;;;;29.65;19.58;;;;;;;8.38;100.00;102905.22;5265033;28;20040;-69
2021/09/22 06:19:06;;;;;;;27.40;18.15;;;;;;;8.43;100.00;102892.81;5266258;28;20080;-69
2021/09/22 06:21:37;;;;;;;29.20;20.67;;;;;;;8.49;100.00;102898.63;5266886;28;20390;-69
2021/09/22 06:24:09;;;;;;;26.17;20.05;;;;;;;8.55;100.00;102900.09;5269206;28;20046;-68
2021/09/22 06:26:40;;;;;;;27.10;20.23;;;;;;;8.62;100.00;102898.06;5269551;28;20028;-68
2021/09/22 06:29:14;;;;;;;27.98;19.23;;;;;;;8.59;100.00;102903.44;5269547;28;20497;-69
2021/09/22 06:31:45;;;;;;;30.02;21.60;;;;;;;8.67;100.00;102899.56;5260808;28;20385;-69
2021/09/22 06:34:16;;;;;;;27.40;21.23;;;;;;;8.78;100.00;102902.53;5262937;28;20061;-68
2021/09/22 06:36:48;;;;;;;26.73;20.17;;;;;;;8.81;100.00;102901.56;5268607;28;20031;-68
2021/09/22 06:39:19;;;;;;;29.85;20.95;;;;;;;8.90;100.00;102905.53;5258632;28;20075;-69
2021/09/22 06:41:50;;;;;;;30.20;21.70;;;;;;;8.96;100.00;102906.13;5257523;28;20043;-68
2021/09/22 06:44:21;;;;;;;25.75;21.42;;;;;;;9.03;100.00;102911.94;5262901;28;20025;-68
2021/09/22 06:46:53;;;;;;;28.38;21.60;;;;;;;9.07;100.00;102904.78;5266162;28;20024;-68
2021/09/22 06:49:24;;;;;;;27.48;20.38;;;;;;;9.12;100.00;102913.25;5260715;28;20024;-69
2021/09/22 06:51:56;;;;;;;29.85;20.83;;;;;;;9.18;100.00;102910.38;5266436;28;20024;-68
2021/09/22 06:54:27;;;;;;;27.48;20.58;;;;;;;9.25;100.00;102906.56;5266500;28;20500;-67
2021/09/22 06:56:59;;;;;;;27.23;20.80;;;;;;;9.23;100.00;102895.31;5262565;28;20044;-68
2021/09/22 06:59:30;;;;;;;28.92;19.83;;;;;;;9.31;100.00;102887.94;5264718;28;20462;-67
2021/09/22 07:02:02;;;;;;;33.33;21.60;;;;;;;9.42;100.00;102893.53;5264906;28;20123;-68
2021/09/22 07:04:34;;;;;;;27.40;20.85;;;;;;;9.55;100.00;102893.81;5264737;28;20035;-67
2021/09/22 07:07:05;;;;;;;25.17;20.77;;;;;;;9.53;100.00;102903.50;5265753;28;20030;-69
2021/09/22 07:09:36;;;;;;;27.45;21.17;;;;;;;9.69;100.00;102906.22;5261020;28;20029;-66
2021/09/22 07:12:08;;;;;;;26.15;20.67;;;;;;;9.73;100.00;102905.16;5263139;28;20049;-69
2021/09/22 07:14:40;;;;;;;26.20;20.73;;;;;;;9.81;100.00;102908.28;5260650;28;20032;-68
2021/09/22 07:17:11;;;;;;;28.27;21.48;;;;;;;9.93;100.00;102910.28;5262390;28;20062;-68
2021/09/22 07:19:42;;;;;;;28.35;20.25;;;;;;;9.92;100.00;102911.19;5259687;28;20465;-69
2021/09/22 07:22:13;;;;;;;26.10;22.13;;;;;;;10.02;100.00;102908.13;5262707;28;20481;-67
2021/09/22 07:24:45;;;;;;;28.83;21.52;;;;;;;10.06;100.00;102909.66;5262339;28;20103;-67
2021/09/22 07:27:16;;;;;;;25.55;20.92;;;;;;;10.16;100.00;102905.69;5263324;28;20116;-68
2021/09/22 07:29:48;;;;;;;28.35;21.00;;;;;;;10.31;100.00;102904.09;5261784;28;20508;-68
2021/09/22 07:32:20;;;;;;;26.48;19.55;;;;;;;10.30;100.00;102911.06;5259233;28;20032;-66
2021/09/22 07:34:51;;;;;;;25.42;20.15;;;;;;;10.39;100.00;102913.25;5259884;28;20033;-67
2021/09/22 07:37:22;;;;;;;26.45;20.55;;;;;;;10.49;100.00;102908.38;5263106;28;20071;-68
2021/09/22 07:39:54;;;;;;;25.05;19.67;;;;;;;10.57;100.00;102902.72;5261198;28;20383;-68
2021/09/22 07:42:25;;;;;;;26.98;20.88;;;;;;;10.68;100.00;102905.63;5261697;28;20109;-67
2021/09/22 07:44:57;;;;;;;25.02;21.02;;;;;;;10.85;100.00;102904.78;5259029;28;20039;-67
2021/09/22 07:47:28;;;;;;;23.98;19.58;;;;;;;10.83;100.00;102898.75;5267521;28;20029;-68
2021/09/22 07:49:59;;;;;;;26.05;19.17;;;;;;;10.95;100.00;102904.19;5265268;28;20032;-67
2021/09/22 07:52:31;;;;;;;25.67;20.90;;;;;;;10.95;100.00;102906.81;5266092;28;20032;-68
2021/09/22 07:55:06;;;;;;;23.92;18.88;;;;;;;11.18;100.00;102904.75;5266333;28;20020;-68
2021/09/22 07:57:37;;;;;;;24.92;19.95;;;;;;;11.27;100.00;102900.75;5264579;28;20348;-69
2021/09/22 08:00:10;;;;;;;26.48;19.35;;;;;;;11.31;100.00;102895.25;5265478;28;20020;-68
2021/09/22 08:02:41;;;;;;;23.85;20.08;;;;;;;11.38;100.00;102899.22;5267218;28;20417;-68
2021/09/22 08:05:13;;;;;;;23.17;19.02;;;;;;;11.55;100.00;102900.91;5263312;28;20031;-68
2021/09/22 08:07:44;;;;;;;22.40;18.67;;;;;;;11.69;100.00;102906.22;5262988;28;20477;-68
2021/09/22 08:10:16;;;;;;;24.48;18.52;;;;;;;11.81;100.00;102902.06;5263560;28;20051;-67
2021/09/22 08:12:49;;;;;;;24.13;18.88;;;;;;;11.85;100.00;102897.50;5262073;28;20024;-69
2021/09/22 08:15:21;;;;;;;21.95;18.20;;;;;;;11.95;100.00;102903.94;5265544;28;20059;-68
2021/09/22 08:17:52;;;;;;;23.20;18.00;;;;;;;12.12;100.00;102892.44;5258677;28;20112;-68
2021/09/22 08:20:23;;;;;;;21.73;17.63;;;;;;;12.22;100.00;102895.38;5265219;28;20504;-67
2021/09/22 08:22:54;;;;;;;22.50;17.70;;;;;;;12.41;100.00;102895.97;5265065;28;20420;-68
2021/09/22 08:25:26;;;;;;;22.10;17.77;;;;;;;12.59;100.00;102900.13;5263024;28;20025;-68
2021/09/22 08:27:57;;;;;;;21.77;16.38;;;;;;;12.71;100.00;102895.91;5261294;28;20025;-68
2021/09/22 08:30:29;;;;;;;19.10;15.18;;;;;;;12.79;100.00;102896.28;5261567;28;20462;-68
2021/09/22 08:33:00;;;;;;;22.30;15.70;;;;;;;12.89;100.00;102894.78;5259179;28;20086;-68
2021/09/22 08:35:32;;;;;;;21.77;16.48;;;;;;;13.12;100.00;102905.66;5263918;28;20539;-68
2021/09/22 08:38:03;;;;;;;19.70;15.50;;;;;;;13.30;100.00;102907.16;5263983;28;20017;-68
2021/09/22 08:40:34;;;;;;;16.75;14.45;;;;;;;13.43;100.00;102901.13;5257876;28;20482;-68
2021/09/22 08:43:06;;;;;;;18.38;13.93;;;;;;;13.62;100.00;102904.25;5265572;28;20198;-69
2021/09/22 08:45:37;;;;;;;15.07;12.93;;;;;;;13.75;100.00;102910.41;5265087;28;20127;-70
2021/09/22 08:48:11;;;;;;;16.55;13.55;;;;;;;13.96;100.00;102909.94;5261497;28;20041;-68
2021/09/22 08:50:42;;;;;;;17.95;14.60;;;;;;;14.09;100.00;102900.25;5262659;28;20449;-68
2021/09/22 08:53:14;;;;;;;16.38;12.48;;;;;;;14.14;100.00;102906.09;5259150;28;20031;-69
2021/09/22 08:55:45;;;;;;;14.18;11.98;;;;;;;14.41;100.00;102905.16;5262294;28;20025;-68
2021/09/22 08:58:16;;;;;;;18.02;12.93;;;;;;;14.53;100.00;102894.63;5266481;28;20028;-69
2021/09/22 09:00:48;;;;;;;14.27;11.85;;;;;;;14.67;100.00;102893.69;5263086;28;20111;-68
2021/09/22 09:03:30;;;;;;;15.88;11.57;;;;;;;14.89;100.00;102897.44;5265760;28;20025;-67
2021/09/22 09:06:24;;;;;;;13.93;11.27;;;;;;;15.01;100.00;102894.81;5260444;28;20111;-68
2021/09/22 09:08:57;;;;;;;14.30;11.65;;;;;;;15.19;100.00;102905.84;5264374;28;20035;-68
2021/09/22 09:11:37;;;;;;;14.80;11.20;;;;;;;15.30;100.00;102892.72;5260959;28;20033;-67
2021/09/22 09:14:11;;;;;;;14.05;11.60;;;;;;;15.42;100.00;102892.75;5262759;28;20107;-68
2021/09/22 09:16:46;;;;;;;14.18;11.65;;;;;;;15.51;100.00;102890.31;5275995;28;20470;-67
2021/09/22 09:19:23;;;;;;;16.48;11.80;;;;;;;15.67;100.00;102883.91;5259300;28;20024;-67
2021/09/22 09:22:02;;;;;;;14.52;11.65;;;;;;;15.88;100.00;102884.13;5261411;28;20078;-67
2021/09/22 09:24:39;;;;;;;14.38;11.30;;;;;;;16.07;100.00;102879.16;5262184;28;20393;-68
2021/09/22 09:27:32;;;;;;;12.77;11.02;;;;;;;16.24;100.00;102876.03;5258006;28;20552;-68
2021/09/22 09:30:18;;;;;;;13.98;10.68;;;;;;;16.45;100.00;102881.50;5262870;28;20886;-66
2021/09/22 09:32:50;;;;;;;13.90;11.15;;;;;;;16.39;100.00;102874.03;5263628;28;20025;-66
2021/09/22 09:35:23;;;;;;;13.98;10.88;;;;;;;16.61;100.00;102873.19;5265036;28;20035;-68
2021/09/22 09:37:55;;;;;;;;;;;;;;;16.91;100.00;102882.38;5261542;28;20029;-67
2021/09/22 09:40:35;;;;;;;13.30;10.05;;;;;;;16.92;100.00;102882.22;5262028;28;20340;-67
2021/09/22 09:43:09;;;;;;;16.13;11.07;;;;;;;17.03;100.00;102878.75;5260591;28;20043;-69
2021/09/22 09:45:42;;;;;;;13.63;9.80;;;;;;;17.07;100.00;102874.88;5267812;28;20081;-69
2021/09/22 09:48:20;;;;;;;12.60;10.50;;;;;;;17.24;100.00;102874.38;5266560;28;20393;-69
2021/09/22 09:50:58;;;;;;;14.15;9.48;;;;;;;17.33;100.00;102874.59;5268796;28;20040;-66
2021/09/22 09:53:34;;;;;;;13.50;9.73;;;;;;;17.46;100.00;102880.56;5268123;28;20473;-68
2021/09/22 09:56:19;;;;;;;13.65;10.07;;;;;;;17.55;100.00;102876.31;5265221;28;20048;-68
2021/09/22 09:58:56;;;;;;;10.30;8.02;;;;;;;17.50;100.00;102861.66;5265456;28;20067;-69
2021/09/22 10:01:40;;;;;;;12.73;9.48;;;;;;;17.68;100.00;102872.50;5267615;28;20037;-68
2021/09/22 10:04:14;;;;;;;11.27;9.88;;;;;;;17.67;100.00;102876.16;5267593;28;20020;-68
2021/09/22 10:06:47;;;;;;;12.55;10.35;;;;;;;17.70;100.00;102865.28;5264915;28;20082;-68
2021/09/22 10:09:19;;;;;;;12.20;9.45;;;;;;;17.80;100.00;102865.38;5268347;28;20123;-67
2021/09/22 10:11:51;;;;;;;15.43;11.73;;;;;;;17.87;100.00;102861.25;5265482;28;20490;-67
2021/09/22 10:14:25;;;;;;;17.08;12.07;;;;;;;17.99;100.00;102857.59;5268004;28;20030;-69
2021/09/22 10:16:56;;;;;;;13.40;12.00;;;;;;;18.03;100.00;102862.59;5265336;28;20424;-66
2021/09/22 10:19:28;;;;;;;17.98;13.45;;;;;;;18.13;100.00;102852.91;5264563;28;20041;-68
2021/09/22 10:22:00;;;;;;;17.90;12.98;;;;;;;18.20;100.00;102848.75;5266210;28;20104;-69
2021/09/22 10:24:31;;;;;;;21.30;14.85;;;;;;;18.15;100.00;102849.16;5263482;28;20402;-68
2021/09/22 10:27:04;;;;;;;20.65;15.20;;;;;;;18.23;100.00;102841.38;5265825;28;20032;-68
2021/09/22 10:29:37;;;;;;;18.33;13.68;;;;;;;18.23;100.00;102846.69;5266116;28;20024;-68
2021/09/22 10:32:33;;;;;;;15.88;13.05;;;;;;;18.47;100.00;102849.03;5266144;28;20028;-69
2021/09/22 10:35:25;;;;;;;18.90;12.68;;;;;;;18.46;100.00;102839.41;5263043;28;20036;-69
2021/09/22 10:38:19;;;;;;;18.25;13.85;;;;;;;18.53;100.00;102838.88;5269920;28;20454;-69
2021/09/22 10:40:52;;;;;;;24.40;17.58;;;;;;;18.48;99.26;102833.94;5265684;28;20126;-69
2021/09/22 10:43:26;;;;;;;20.85;16.63;;;;;;;18.50;99.13;102839.97;5261768;28;20112;-69
2021/09/22 10:46:07;;;;;;;29.70;22.15;;;;;;;18.62;100.00;102830.09;5263662;28;20462;-68
2021/09/22 10:48:40;;;;;;;24.70;18.80;;;;;;;18.66;100.00;102832.34;5267709;28;20385;-69
2021/09/22 10:51:11;;;;;;;17.48;15.20;;;;;;;18.70;99.68;102831.13;5265836;28;20028;-69
2021/09/22 10:53:45;;;;;;;23.77;16.77;;;;;;;18.82;97.68;102826.53;5266008;28;20056;-68
2021/09/22 10:56:26;;;;;;;22.30;17.92;;;;;;;18.88;96.34;102825.16;5262496;28;20032;-69
2021/09/22 10:59:02;;;;;;;18.65;13.75;;;;;;;18.86;96.37;102830.59;5264745;28;20506;-69
2021/09/22 11:01:39;;;;;;;20.80;15.40;;;;;;;18.93;96.84;102826.44;5265161;28;20036;-69
2021/09/22 11:04:12;;;;;;;18.98;14.50;;;;;;;18.77;94.29;102831.44;5266232;28;20025;-69
2021/09/22 11:06:44;;;;;;;18.50;15.02;;;;;;;18.95;96.51;102823.66;5266559;28;20025;-70
2021/09/22 11:09:18;;;;;;;19.97;15.53;;;;;;;19.12;97.55;102822.97;5264990;28;20036;-69
2021/09/22 11:11:55;;;;;;;18.30;12.60;;;;;;;19.32;94.35;102821.19;5265644;28;20036;-69
2021/09/22 11:14:26;;;;;;;13.88;12.02;;;;;;;19.41;91.18;102815.00;5262126;28;20055;-69
2021/09/22 11:17:02;;;;;;;14.50;11.63;;;;;;;19.56;91.26;102811.94;5263016;28;20033;-69
2021/09/22 11:19:35;;;;;;;14.40;12.13;;;;;;;19.60;91.05;102803.53;5267489;28;20095;-70
2021/09/22 11:22:11;;;;;;;14.30;11.48;;;;;;;19.71;90.86;102804.41;5265773;28;20032;-69
2021/09/22 11:24:45;;;;;;;14.00;10.75;;;;;;;19.85;90.36;102796.81;5264777;28;20049;-68
2021/09/22 11:27:19;;;;;;;16.52;14.02;;;;;;;19.73;90.32;102787.28;5267148;28;20028;-69
2021/09/22 11:29:53;;;;;;;17.98;13.43;;;;;;;19.71;89.43;102783.97;5266124;28;20112;-69
2021/09/22 11:32:35;;;;;;;14.93;12.30;;;;;;;19.87;90.71;102778.88;5264496;28;20028;-69
2021/09/22 11:35:13;;;;;;;16.30;12.23;;;;;;;20.04;90.21;102776.44;5257788;28;20028;-68